クグルクトゥク の空港の天気 - METARとTAF

Coppermine ( CYCO / YCO ) - カナダ ヌナブト準州Kugluktuk
飛行場実況気象(Metar)
観測時間10/25 15:00 MDT (10/25 21:00 UTC)
風向・風速西 9m/s 瞬間風速12m/s
視程10km以上
天気現象
少しの雲 雲底高度 2230m
全天の4割程度の雲 雲底高度 3350m
全天の8割程度の雲 雲底高度 5180m
全天を覆う雲 雲底高度 6100m
気温-4℃
湿度80%
気圧1007.8hPa
METARCYCO 252100Z 26017G24KT 15SM FEW073 SCT110 BKN170 OVC200 M04/M07 A2975 RMK AC1AC3AS3CS1 SLP078
過去の天気等 Google飛行場航空写真 Wunderground天気予報

過去48時間のMETAR

飛行場予報(TAF)
発表時間: 10/25 12:38 MDT (10/25 18:38 UTC)
予報対象時間: 25日13時 MDT ~ 26日1時 MDT
風向・風速南西 9m/s 瞬間風速 14m/s
視程10km以上
全天の4割程度の雲 雲底高度 1520m
25日13時 MDT ~ 25日18時 MDT に一時的に
全天の8割程度の雲 雲底高度 1520m
25日18時 MDT から
風向・風速西 10m/s
視程10km以上
全天の4割程度の雲 雲底高度 610m
全天を覆う雲 雲底高度 1520m
25日18時 MDT ~ 26日1時 MDT に一時的に
視程4830m
天気現象弱い雪 高い地吹雪
全天を覆う雲 雲底高度 610m
TAF CYCO 251838Z 2519/2607 23018G28KT P6SM SCT050
TEMPO 2519/2524 BKN050
FM260000 27020KT P6SM SCT020 OVC050
TEMPO 2600/2607 3SM -SN BLSN OVC020 RMK NXT FCST BY 260100Z